Weather observations for the past three days for
Safford, Safford Municipal Airport
Metric (Imperial)
Date Time (mst) Wind (kph) Vis. (km) Weather Sky Cond. Temperature (ºC) Relative Humidity Wind Chill (°C) Heat Index (°C) Pressure Precipitation (cm)
Air Dwpt 6 hour altimeter (cm) sea level (mb) 1 hr 3 hr 6 hr
Max. Min.
08 15:51 W 30 G 41 16.09 Fair CLR 34.4 -6.7 7% 32 75.72 1004.2
08 14:51 W 22 G 39 16.09 Fair CLR 33.9 -6.7 7% 31 75.77 1004.9
08 13:51 NW 26 G 41 16.09 Fair CLR 33.9 -7.2 7% 31 75.84 1005.9
08 12:51 W 28 G 41 16.09 Fair CLR 32.8 -8.9 6% 31 75.92 1006.8
08 11:51 W 30 G 43 16.09 Fair CLR 31.1 -6.7 8% 29 76 1007.8
08 10:51 W 28 G 43 16.09 Fair CLR 30 -4.4 30 14.4 10% 28 76.05 1008.7
08 09:51 W 30 G 46 16.09 Fair CLR 27.8 -3.9 12% 26 76.1 1009.4
08 08:51 NW 11 16.09 Fair CLR 24.4 -4.4 14% 24 76.15 1010.5
08 07:51 S 6 16.09 Fair CLR 19.4 -6.1 17% 76.15 1011.1
08 06:51 SE 11 16.09 Fair CLR 17.2 -7.2 18% 76.12 1010.5
08 05:51 S 9 16.09 Fair CLR 14.4 -7.8 21% 76.07 1010.0
08 04:51 NW 19 16.09 Fair CLR 18.3 -7.2 21.7 16.7 17% 76.02 1008.6
08 03:51 NW 19 16.09 Fair CLR 18.9 -8.9 14% 76 1008.5
08 02:51 NW 20 16.09 Fair CLR 17.8 -8.9 15% 76 1008.4
08 01:51 W 19 16.09 Fair CLR 18.3 -9.4 14% 76 1008.2
08 00:51 NW 19 16.09 Fair CLR 20 -8.3 14% 76 1008.5
07 23:51 NW 20 16.09 Fair CLR 21.1 -6.7 15% 76.02 1008.9
07 22:51 NW 13 16.09 Fair CLR 20.6 -7.8 30 20.6 14% 76.02 1008.9
07 21:51 NW 13 16.09 Fair CLR 22.2 -7.8 13% 75.97 1008.5
07 20:51 N 7 16.09 Fair CLR 22.2 -8.3 12% 75.95 1008.2
07 19:51 NW 9 16.09 Fair CLR 24.4 -9.4 10% 24 75.87 1007.4
07 18:51 NW 9 16.09 Fair CLR 28.3 -10.6 7% 27 75.82 1006.7
07 17:51 W 15 16.09 Fair CLR 29.4 -10.6 7% 28 75.79 1006.6
07 16:51 W 11 16.09 Fair CLR 30 -9.4 30 25 7% 28 75.82 1006.5
07 15:51 Vrbl 9 16.09 Fair CLR 30 -8.9 7% 28 75.84 1006.7
07 14:51 S 15 G 31 16.09 Fair CLR 29.4 -7.8 8% 28 75.9 1007.6
07 13:51 SE 13 16.09 Fair CLR 30 -6.7 9% 28 75.97 1008.5
07 12:51 Vrbl 6 16.09 Fair CLR 28.3 -5.6 10% 27 76.05 1009.5
07 11:51 Calm 16.09 Fair CLR 26.1 -3.3 14% 25 76.1 1010.5
07 10:51 SE 11 16.09 Fair CLR 25 -2.8 25.6 10 16% 25 76.17 1011.4
07 09:51 E 11 16.09 Fair CLR 22.8 -1.1 20% 76.23 1012.1
07 08:51 Vrbl 6 16.09 Fair CLR 20.6 0 25% 76.28 1013.0
07 07:51 Calm 16.09 Fair CLR 17.2 -1.1 29% 76.25 1013.0
07 06:51 SE 7 16.09 Fair CLR 13.9 -2.2 33% 76.25 1013.2
07 05:51 Calm 16.09 Fair CLR 10.6 -2.2 41% 76.23 1012.7
07 04:51 SE 11 16.09 Fair CLR 13.3 -1.7 17.2 12.8 36% 76.2 1012.1
07 03:51 N 13 16.09 Fair CLR 13.9 -1.7 34% 76.17 1011.8
07 02:51 N 11 16.09 Fair CLR 13.9 -1.7 34% 76.17 1011.9
07 01:51 NW 11 16.09 Fair CLR 14.4 -2.2 32% 76.2 1012.1
07 00:51 NW 11 16.09 Fair CLR 14.4 -2.2 32% 76.2 1012.4
06 23:51 NW 7 16.09 Fair CLR 16.1 -3.3 26% 76.2 1012.4
06 22:51 NW 13 16.09 Fair CLR 17.2 -3.3 26.1 17.2 25% 76.2 1012.3
06 21:51 NW 17 16.09 Fair CLR 19.4 -4.4 20% 76.17 1011.8
06 20:51 NW 13 16.09 Fair CLR 18.9 -3.9 21% 76.15 1011.7
06 19:51 W 9 16.09 Fair CLR 21.1 -3.9 18% 76.07 1010.6
06 18:51 W 13 16.09 Fair CLR 23.9 -6.1 13% 24 76.02 1010.1
06 17:51 NW 15 16.09 Fair CLR 25.6 -6.7 11% 25 76 1009.8
06 16:51 W 15 G 31 16.09 Fair CLR 25.6 -5.6 26.7 20 12% 25 76 1009.6
06 15:51 NW 17 G 37 16.09 Fair CLR 25.6 -6.7 11% 25 76 1009.8
06 14:51 W 15 G 37 16.09 Fair CLR 25 -6.1 12% 25 76.05 1010.3
06 13:51 NW 24 G 31 16.09 Fair CLR 23.9 -5 14% 24 76.1 1011.0
06 12:51 NW 15 G 31 16.09 Fair CLR 22.8 -5.6 15% 76.15 1011.7
06 11:51 W 22 G 30 16.09 Fair CLR 21.7 -1.7 21% 76.2 1012.4
06 10:51 NW 17 G 33 16.09 Fair CLR 20.6 -0.6 20.6 8.9 24% 76.25 1013.1
06 09:51 Calm 16.09 Fair CLR 18.9 0 28% 76.25 1013.3
06 08:51 Vrbl 9 16.09 Fair CLR 17.8 0.6 32% 76.25 1013.2
06 07:51 W 13 16.09 Fair CLR 16.1 1.7 38% 76.25 1013.2
06 06:51 Calm 16.09 Fair CLR 12.8 2.8 51% 76.25 1013.4
06 05:51 NW 9 16.09 Fair CLR 9.4 2.2 61% 8 76.2 1012.7
06 04:51 NW 9 16.09 Fair CLR 10 2.2 15.6 10 59% 9 76.15 1011.9
06 03:51 NW 15 16.09 Fair CLR 11.1 2.2 55% 76.12 1011.3
06 02:51 N 11 16.09 Fair CLR 11.7 2.8 55% 76.1 1011.0
06 01:51 W 17 16.09 Fair CLR 12.8 2.8 51% 76.07 1010.8
06 00:51 NW 17 16.09 Fair CLR 13.3 2.8 49% 76.1 1011.0
05 23:51 NW 17 16.09 Fair CLR 15 2.8 44% 76.07 1010.6
05 22:51 NW 20 16.09 Fair CLR 15.6 2.8 24.4 15.6 42% 76 1010.0
05 21:51 NW 22 16.09 Fair CLR 17.2 2.8 38% 75.97 1009.3
05 20:51 NW 26 16.09 Fair CLR 17.8 2.2 35% 75.9 1008.6
05 19:51 NW 33 16.09 Fair and Breezy CLR 18.9 2.8 34% 75.84 1007.8
05 18:51 W 28 G 43 16.09 Fair CLR 20.6 1.7 29% 75.74 1006.5
05 17:51 W 37 G 48 16.09 Fair and Breezy CLR 22.8 3.3 28% 75.69 1005.4
05 16:51 W 37 G 56 16.09 A Few Clouds and Breezy FEW100 24.4 1.7 25.6 18.3 23% 25 75.64 1004.6
Date Time (mst) Wind (kph) Vis. (km) Weather Sky Cond. Air Dwpt Max. Min. Relative Humidity Wind Chill (°C) Heat Index (°C) altimeter (cm) sea level (mb) 1 hr 3 hr 6 hr
6 hour
Temperature (ºC) Pressure Precipitation (cm)